createdAt,value
2022-12-24T00:06:44.958Z,7.25
2022-12-24T00:16:49.050Z,10.40
2022-12-24T00:26:50.343Z,12.63
2022-12-24T00:36:51.568Z,14.25
2022-12-24T00:46:52.843Z,8.98
2022-12-24T00:56:54.114Z,12.70
2022-12-24T01:06:56.428Z,14.38
2022-12-24T01:16:58.124Z,13.85
2022-12-24T01:26:59.502Z,11.43
2022-12-24T01:37:01.101Z,15.00
2022-12-24T01:47:02.392Z,17.70
2022-12-24T01:57:03.710Z,11.05
2022-12-24T02:07:05.292Z,13.60
2022-12-24T02:17:06.618Z,10.07
2022-12-24T02:27:07.865Z,14.43
2022-12-24T02:37:09.092Z,15.63
2022-12-24T02:47:10.402Z,13.40
2022-12-24T02:57:11.720Z,15.55
2022-12-24T03:07:13.003Z,20.33
2022-12-24T03:17:14.308Z,22.25
2022-12-24T03:27:15.578Z,16.05
2022-12-24T03:37:16.827Z,20.42
2022-12-24T03:47:18.070Z,16.60
2022-12-24T03:57:19.295Z,21.08
2022-12-24T04:07:20.536Z,15.27
2022-12-24T04:17:21.839Z,21.58
2022-12-24T04:27:28.362Z,21.85
2022-12-24T04:37:31.715Z,37.28
2022-12-24T04:47:32.995Z,18.23
2022-12-24T04:57:35.632Z,29.55
2022-12-24T05:07:36.958Z,21.95
2022-12-24T05:17:38.234Z,18.05
2022-12-24T05:27:39.457Z,22.80
2022-12-24T05:37:40.687Z,20.35
2022-12-24T05:47:43.679Z,29.48
2022-12-24T05:57:45.092Z,25.20
2022-12-24T06:07:46.630Z,22.45
2022-12-24T06:17:47.905Z,23.75
2022-12-24T06:27:49.197Z,19.38
2022-12-24T06:37:50.415Z,19.50
2022-12-24T06:47:51.652Z,17.95
2022-12-24T06:57:52.905Z,19.75
2022-12-24T07:07:54.228Z,20.17
2022-12-24T07:17:55.563Z,20.85
2022-12-24T07:27:56.872Z,20.55
2022-12-24T07:37:58.132Z,20.55
2022-12-24T07:47:59.397Z,21.88
2022-12-24T07:58:00.641Z,23.92
2022-12-24T08:08:02.035Z,19.27
2022-12-24T08:18:04.491Z,23.38
2022-12-24T08:28:05.741Z,19.73
2022-12-24T08:38:06.991Z,20.23
2022-12-24T08:48:08.325Z,23.60
2022-12-24T08:58:09.591Z,22.55
2022-12-24T09:08:10.919Z,23.20
2022-12-24T09:18:12.198Z,23.05
2022-12-24T09:28:13.454Z,28.05
2022-12-24T09:38:14.734Z,22.38
2022-12-24T09:48:16.040Z,20.35
2022-12-24T09:58:17.277Z,19.60
2022-12-24T10:08:18.683Z,23.67
2022-12-24T10:18:20.307Z,23.33
2022-12-24T10:28:21.597Z,26.75
2022-12-24T10:38:22.884Z,25.13
2022-12-24T10:48:24.203Z,27.83
2022-12-24T10:58:25.440Z,20.83
2022-12-24T11:08:26.693Z,26.05
2022-12-24T11:18:27.927Z,23.60
2022-12-24T11:28:29.229Z,34.13
2022-12-24T11:38:30.459Z,19.45
2022-12-24T11:48:31.726Z,22.88
2022-12-24T11:58:32.932Z,26.23
2022-12-24T12:08:34.257Z,18.85
2022-12-24T12:18:35.483Z,19.83
2022-12-24T12:28:36.792Z,18.08
2022-12-24T12:38:38.085Z,22.27
2022-12-24T12:48:39.923Z,18.92
2022-12-24T12:58:41.280Z,20.88
2022-12-24T13:08:42.647Z,27.48
2022-12-24T13:18:44.367Z,16.52
2022-12-24T13:28:45.646Z,21.65
2022-12-24T13:38:46.924Z,17.23
2022-12-24T13:48:48.161Z,18.73
2022-12-24T13:58:49.407Z,24.33
2022-12-24T14:08:50.656Z,18.23
2022-12-24T14:19:02.794Z,17.02
2022-12-24T14:29:04.291Z,19.10
2022-12-24T14:39:05.540Z,21.17
2022-12-24T14:49:06.760Z,20.13
2022-12-24T14:59:08.017Z,23.95
2022-12-24T15:09:09.314Z,16.75
2022-12-24T15:19:10.631Z,17.05
2022-12-24T15:29:11.869Z,28.42
2022-12-24T15:39:13.093Z,51.15
2022-12-24T15:49:14.355Z,25.77
2022-12-24T15:59:16.013Z,30.65
2022-12-24T16:09:17.406Z,30.33
2022-12-24T16:19:18.676Z,28.10
2022-12-24T16:29:20.827Z,19.67
2022-12-24T16:39:25.161Z,17.25
2022-12-24T16:49:26.445Z,13.87
2022-12-24T16:59:27.684Z,13.95
2022-12-24T17:09:28.978Z,14.77
2022-12-24T17:19:30.237Z,22.08
2022-12-24T17:29:31.494Z,13.88
2022-12-24T17:39:32.751Z,16.77
2022-12-24T17:49:34.002Z,20.98
2022-12-24T17:59:35.231Z,21.30
2022-12-24T18:09:36.482Z,23.05
2022-12-24T18:19:37.696Z,22.25
2022-12-24T18:29:41.550Z,24.67
2022-12-24T18:39:42.783Z,23.50
2022-12-24T18:49:44.044Z,20.95
2022-12-24T18:59:45.336Z,19.75
2022-12-24T19:09:48.459Z,15.80
2022-12-24T19:19:49.838Z,14.20
2022-12-24T19:29:51.134Z,15.32
2022-12-24T19:39:52.353Z,12.98
2022-12-24T19:49:53.570Z,12.05
2022-12-24T19:59:54.846Z,11.82
2022-12-24T20:09:56.395Z,12.75
2022-12-24T20:19:57.983Z,9.73
2022-12-24T20:29:59.263Z,12.20
2022-12-24T20:40:00.604Z,7.90
2022-12-24T20:50:01.899Z,9.48
2022-12-24T21:00:03.210Z,11.65
2022-12-24T21:10:04.502Z,11.45
2022-12-24T21:20:05.775Z,10.00
2022-12-24T21:30:08.143Z,7.95
2022-12-24T21:40:09.387Z,6.82
2022-12-24T21:50:32.146Z,7.03
2022-12-24T22:00:33.770Z,9.68
2022-12-24T22:10:53.547Z,8.55
2022-12-24T22:20:55.887Z,7.03
2022-12-24T22:30:57.196Z,8.18
2022-12-24T22:40:58.504Z,8.70
2022-12-24T22:50:59.771Z,6.45
2022-12-24T23:01:01.010Z,5.90
2022-12-24T23:11:02.259Z,7.50
2022-12-24T23:21:03.475Z,7.57
2022-12-24T23:31:05.019Z,9.43
2022-12-24T23:41:06.269Z,7.55
2022-12-24T23:51:07.519Z,7.85
